createdAt,value
2019-03-10T00:00:47.989Z,32.47
2019-03-10T00:03:19.372Z,27.77
2019-03-10T00:05:49.214Z,23.30
2019-03-10T00:08:19.062Z,30.73
2019-03-10T00:10:48.834Z,25.43
2019-03-10T00:13:18.626Z,22.17
2019-03-10T00:15:48.394Z,21.47
2019-03-10T00:18:18.187Z,27.90
2019-03-10T00:20:48.098Z,26.83
2019-03-10T00:23:17.912Z,33.10
2019-03-10T00:25:47.684Z,31.43
2019-03-10T00:28:18.150Z,24.93
2019-03-10T00:30:47.940Z,34.50
2019-03-10T00:33:17.750Z,29.93
2019-03-10T00:35:47.525Z,26.13
2019-03-10T00:38:17.302Z,28.23
2019-03-10T00:41:14.131Z,22.90
2019-03-10T00:43:55.262Z,25.83
2019-03-10T00:46:56.882Z,31.87
2019-03-10T00:49:46.487Z,23.07
2019-03-10T00:52:24.904Z,24.17
2019-03-10T00:54:54.687Z,27.93
2019-03-10T00:57:24.472Z,25.20
2019-03-10T00:59:54.323Z,26.07
2019-03-10T01:02:24.095Z,23.07
2019-03-10T01:04:53.908Z,24.27
2019-03-10T01:07:23.681Z,22.63
2019-03-10T01:09:53.466Z,19.60
2019-03-10T01:12:23.303Z,26.97
2019-03-10T01:14:53.099Z,19.80
2019-03-10T01:17:23.201Z,27.53
2019-03-10T01:19:53.758Z,24.30
2019-03-10T01:22:23.523Z,17.23
2019-03-10T01:24:53.323Z,21.27
2019-03-10T01:27:23.099Z,23.93
2019-03-10T01:29:52.880Z,18.43
2019-03-10T01:32:37.086Z,27.93
2019-03-10T01:35:10.066Z,22.87
2019-03-10T01:37:39.854Z,26.53
2019-03-10T01:40:09.872Z,19.27
2019-03-10T01:42:39.672Z,21.40
2019-03-10T01:45:13.058Z,25.17
2019-03-10T01:47:42.840Z,25.03
2019-03-10T01:50:14.056Z,20.97
2019-03-10T01:52:43.841Z,19.63
2019-03-10T01:55:13.893Z,24.50
2019-03-10T01:57:43.670Z,23.63
2019-03-10T02:00:16.556Z,26.13
2019-03-10T02:02:46.410Z,21.53
2019-03-10T02:05:16.194Z,19.07
2019-03-10T02:07:45.970Z,21.23
2019-03-10T02:10:15.738Z,26.97
2019-03-10T02:12:45.528Z,21.03
2019-03-10T02:15:15.970Z,21.50
2019-03-10T02:17:45.762Z,20.50
2019-03-10T02:20:18.803Z,24.83
2019-03-10T02:22:48.588Z,25.30
2019-03-10T02:25:18.364Z,23.53
2019-03-10T02:27:48.203Z,28.53
2019-03-10T02:30:18.613Z,20.03
2019-03-10T02:32:48.470Z,18.07
2019-03-10T02:35:18.255Z,28.50
2019-03-10T02:37:48.051Z,26.00
2019-03-10T02:40:17.821Z,26.97
2019-03-10T02:42:47.602Z,21.90
2019-03-10T02:45:17.441Z,21.83
2019-03-10T02:47:47.264Z,22.00
2019-03-10T02:50:17.107Z,27.27
2019-03-10T02:52:46.885Z,24.30
2019-03-10T02:55:16.683Z,22.77
2019-03-10T02:57:46.523Z,30.73
2019-03-10T03:00:16.379Z,25.20
2019-03-10T03:02:46.258Z,21.57
2019-03-10T03:05:16.091Z,18.50
2019-03-10T03:07:45.941Z,23.27
2019-03-10T03:10:15.720Z,20.30
2019-03-10T03:12:45.490Z,23.53
2019-03-10T03:15:16.264Z,18.83
2019-03-10T03:17:46.120Z,15.93
2019-03-10T03:20:15.916Z,23.47
2019-03-10T03:22:45.683Z,17.07
2019-03-10T03:25:15.481Z,12.47
2019-03-10T03:27:45.253Z,18.53
2019-03-10T03:30:19.034Z,10.90
2019-03-10T03:32:48.847Z,13.57
2019-03-10T03:35:51.921Z,12.20
2019-03-10T03:38:24.628Z,10.33
2019-03-10T03:41:03.790Z,8.13
2019-03-10T03:43:33.562Z,17.90
2019-03-10T03:46:03.378Z,11.07
2019-03-10T03:48:33.275Z,6.80
2019-03-10T03:51:03.078Z,7.17
2019-03-10T03:53:32.922Z,11.87
2019-03-10T03:56:02.703Z,12.03
2019-03-10T03:58:32.536Z,12.87
2019-03-10T04:01:04.060Z,12.67
2019-03-10T04:03:33.828Z,11.47
2019-03-10T04:06:03.611Z,11.30
2019-03-10T04:08:33.399Z,12.30
2019-03-10T04:11:03.196Z,13.67
2019-03-10T04:13:32.982Z,14.20
2019-03-10T04:16:02.784Z,10.07
2019-03-10T04:18:32.552Z,9.80
2019-03-10T04:21:02.339Z,12.20
2019-03-10T04:23:32.130Z,10.87
2019-03-10T04:26:01.904Z,10.00
2019-03-10T04:28:31.693Z,11.20
2019-03-10T04:31:01.463Z,10.07
2019-03-10T04:33:31.251Z,10.37
2019-03-10T04:36:01.022Z,13.27
2019-03-10T04:38:30.802Z,11.73
2019-03-10T04:41:00.593Z,15.33
2019-03-10T04:43:30.376Z,11.57
2019-03-10T04:46:00.150Z,8.37
2019-03-10T04:48:29.949Z,11.37
2019-03-10T04:50:59.727Z,20.97
2019-03-10T04:53:29.522Z,10.00
2019-03-10T04:56:03.591Z,8.50
2019-03-10T04:58:35.007Z,11.50
2019-03-10T05:01:04.779Z,9.93
2019-03-10T05:03:34.558Z,8.63
2019-03-10T05:06:04.344Z,9.40
2019-03-10T05:08:34.195Z,9.30
2019-03-10T05:11:03.984Z,10.40
2019-03-10T05:13:33.758Z,9.87
2019-03-10T05:16:03.696Z,10.27
2019-03-10T05:18:34.563Z,10.50
2019-03-10T05:21:04.342Z,11.83
2019-03-10T05:23:40.871Z,7.70
2019-03-10T05:26:10.718Z,14.07
2019-03-10T05:28:43.059Z,10.33
2019-03-10T05:31:12.825Z,7.30
2019-03-10T05:33:42.687Z,11.33
2019-03-10T05:36:12.473Z,10.03
2019-03-10T05:38:42.269Z,11.47
2019-03-10T05:41:12.050Z,10.87
2019-03-10T05:43:41.835Z,14.67
2019-03-10T05:46:11.611Z,6.10
2019-03-10T05:48:41.395Z,9.10
2019-03-10T05:51:11.177Z,7.20
2019-03-10T05:53:40.941Z,7.60
2019-03-10T05:56:10.715Z,6.60
2019-03-10T05:58:40.482Z,9.47
2019-03-10T06:01:10.262Z,7.73
2019-03-10T06:03:41.112Z,9.13
2019-03-10T06:06:10.908Z,11.27
2019-03-10T06:08:40.675Z,10.90
2019-03-10T06:11:10.467Z,12.20
2019-03-10T06:13:40.236Z,9.00
2019-03-10T06:16:10.029Z,16.23
2019-03-10T06:18:39.804Z,12.00
2019-03-10T06:21:09.582Z,9.37
2019-03-10T06:23:39.350Z,12.17
2019-03-10T06:26:09.150Z,12.53
2019-03-10T06:28:38.930Z,7.57
2019-03-10T06:31:08.693Z,9.30
2019-03-10T06:33:38.474Z,10.40
2019-03-10T06:36:08.248Z,9.80
2019-03-10T06:38:38.031Z,11.73
2019-03-10T06:41:07.803Z,11.30
2019-03-10T06:43:37.588Z,9.37
2019-03-10T06:46:07.360Z,10.73
2019-03-10T06:48:37.147Z,13.97
2019-03-10T06:51:06.919Z,6.90
2019-03-10T06:53:36.688Z,12.20
2019-03-10T06:56:06.455Z,7.50
2019-03-10T06:58:36.247Z,7.03
2019-03-10T07:01:06.076Z,9.90
2019-03-10T07:03:35.860Z,6.67
2019-03-10T07:06:05.632Z,6.23
2019-03-10T07:08:35.412Z,8.50
2019-03-10T07:11:05.267Z,9.10
2019-03-10T07:13:35.052Z,10.40
2019-03-10T07:16:04.901Z,14.63
2019-03-10T07:18:34.680Z,7.73
2019-03-10T07:21:04.479Z,6.90
2019-03-10T07:23:34.255Z,7.73
2019-03-10T07:26:06.999Z,11.77
2019-03-10T07:28:44.022Z,9.43
2019-03-10T07:31:17.892Z,9.03
2019-03-10T07:33:52.303Z,13.07
2019-03-10T07:36:24.537Z,15.20
2019-03-10T07:39:07.987Z,10.50
2019-03-10T07:41:48.559Z,11.13
2019-03-10T07:44:37.943Z,10.53
2019-03-10T07:47:27.615Z,9.00
2019-03-10T07:50:04.973Z,15.37
2019-03-10T07:52:36.395Z,12.33
2019-03-10T07:55:11.199Z,8.67
2019-03-10T07:57:42.623Z,13.70
2019-03-10T08:00:19.995Z,11.33
2019-03-10T08:02:54.543Z,13.63
2019-03-10T08:05:25.959Z,12.07
2019-03-10T08:08:15.775Z,11.60
2019-03-10T08:10:47.200Z,9.97
2019-03-10T08:13:28.769Z,13.27
2019-03-10T08:16:03.143Z,15.13
2019-03-10T08:18:46.147Z,10.20
2019-03-10T08:21:29.371Z,11.27
2019-03-10T08:24:00.811Z,13.17
2019-03-10T08:26:35.203Z,11.57
2019-03-10T08:29:12.232Z,10.37
2019-03-10T08:31:43.667Z,10.77
2019-03-10T08:34:31.306Z,12.93
2019-03-10T08:37:11.812Z,11.33
2019-03-10T08:39:45.962Z,15.17
2019-03-10T08:42:20.902Z,12.57
2019-03-10T08:45:08.905Z,7.47
2019-03-10T08:47:40.315Z,8.33
2019-03-10T08:50:24.915Z,6.47
2019-03-10T08:52:57.751Z,5.93
2019-03-10T08:55:35.356Z,3.17
2019-03-10T08:58:15.499Z,5.07
2019-03-10T09:00:52.679Z,4.33
2019-03-10T09:03:40.603Z,2.87
2019-03-10T09:06:12.063Z,3.83
2019-03-10T09:08:49.672Z,2.20
2019-03-10T09:11:23.966Z,5.37
2019-03-10T09:13:58.043Z,3.13
2019-03-10T09:16:38.108Z,5.70
2019-03-10T09:19:25.564Z,2.23
2019-03-10T09:22:00.327Z,2.77
2019-03-10T09:24:48.308Z,3.07
2019-03-10T09:27:38.059Z,3.93
2019-03-10T09:30:17.992Z,3.77
2019-03-10T09:32:49.442Z,3.37
2019-03-10T09:35:20.856Z,2.93
2019-03-10T09:37:58.244Z,3.43
2019-03-10T09:40:46.250Z,4.20
2019-03-10T09:43:26.476Z,3.80
2019-03-10T09:46:00.980Z,4.00
2019-03-10T09:48:44.664Z,4.57
2019-03-10T09:51:32.360Z,3.40
2019-03-10T09:54:22.109Z,7.20
2019-03-10T09:56:56.434Z,4.83
2019-03-10T09:59:39.886Z,3.77
2019-03-10T10:02:12.208Z,5.47
2019-03-10T10:04:46.807Z,3.83
2019-03-10T10:07:21.187Z,3.77
2019-03-10T10:09:55.557Z,4.83
2019-03-10T10:12:36.207Z,4.65
2019-03-10T10:15:23.883Z,7.73
2019-03-10T10:17:55.328Z,5.30
2019-03-10T10:20:29.731Z,5.95
2019-03-10T10:23:04.177Z,6.87
2019-03-10T10:25:35.670Z,7.35
2019-03-10T10:28:11.009Z,6.05
2019-03-10T10:30:58.647Z,9.03
2019-03-10T10:33:39.959Z,9.45
2019-03-10T10:36:17.323Z,6.30
2019-03-10T10:38:48.762Z,9.75
2019-03-10T10:41:35.255Z,10.80
2019-03-10T10:44:18.531Z,8.55
2019-03-10T10:47:05.903Z,9.20
2019-03-10T10:49:43.051Z,13.68
2019-03-10T10:52:14.497Z,14.98
2019-03-10T10:54:57.895Z,16.27
2019-03-10T10:57:35.130Z,13.85
2019-03-10T11:00:09.619Z,11.43
2019-03-10T11:02:43.989Z,11.57
2019-03-10T11:05:15.562Z,10.20
2019-03-10T11:07:47.022Z,11.50
2019-03-10T11:10:36.688Z,14.63
2019-03-10T11:13:20.055Z,8.97
2019-03-10T11:16:00.590Z,10.50
2019-03-10T11:18:32.020Z,10.07
2019-03-10T11:21:06.604Z,8.87
2019-03-10T11:23:47.010Z,6.67
2019-03-10T11:26:26.947Z,10.27
2019-03-10T11:29:00.899Z,14.10
2019-03-10T11:31:37.254Z,9.63
2019-03-10T11:34:28.071Z,11.93
2019-03-10T11:37:02.082Z,9.20
2019-03-10T11:39:36.066Z,10.57
2019-03-10T11:42:07.491Z,8.77
2019-03-10T11:44:38.920Z,10.93
2019-03-10T11:47:10.343Z,12.83
2019-03-10T11:49:58.238Z,8.80
2019-03-10T11:52:29.655Z,10.17
2019-03-10T11:55:03.857Z,11.87
2019-03-10T11:57:41.304Z,16.47
2019-03-10T12:00:30.004Z,9.40
2019-03-10T12:03:04.231Z,10.47
2019-03-10T12:05:47.851Z,14.70
2019-03-10T12:08:19.293Z,13.83
2019-03-10T12:10:49.083Z,12.23
2019-03-10T12:13:18.859Z,12.80
2019-03-10T12:16:00.500Z,10.87
2019-03-10T12:18:30.287Z,16.87
2019-03-10T12:21:00.082Z,13.63
2019-03-10T12:23:29.868Z,20.17
2019-03-10T12:25:59.659Z,12.60
2019-03-10T12:28:29.468Z,13.33
2019-03-10T12:30:59.253Z,14.43
2019-03-10T12:33:29.048Z,12.73
2019-03-10T12:35:58.830Z,15.33
2019-03-10T12:38:28.629Z,15.10
2019-03-10T12:40:58.408Z,15.63
2019-03-10T12:43:28.204Z,15.03
2019-03-10T12:45:57.988Z,13.60
2019-03-10T12:48:27.794Z,10.17
2019-03-10T12:50:57.580Z,9.70
2019-03-10T12:53:27.372Z,13.67
2019-03-10T12:55:57.158Z,10.90
2019-03-10T12:58:26.952Z,5.37
2019-03-10T13:01:05.633Z,6.13
2019-03-10T13:03:28.251Z,11.50
2019-03-10T13:05:58.080Z,10.17
2019-03-10T13:08:27.882Z,9.27
2019-03-10T13:10:57.660Z,12.17
2019-03-10T13:13:27.448Z,9.60
2019-03-10T13:15:57.243Z,18.13
2019-03-10T13:18:27.041Z,10.47
2019-03-10T13:20:56.816Z,9.57
2019-03-10T13:23:26.607Z,13.97
2019-03-10T13:25:56.398Z,17.03
2019-03-10T13:28:26.176Z,9.97
2019-03-10T13:30:55.974Z,9.90
2019-03-10T13:33:25.752Z,10.20
2019-03-10T13:35:57.053Z,10.70
2019-03-10T13:38:27.094Z,7.30
2019-03-10T13:40:56.887Z,15.90
2019-03-10T13:43:26.667Z,14.53
2019-03-10T13:45:56.544Z,14.67
2019-03-10T13:48:26.360Z,11.77
2019-03-10T13:50:56.211Z,13.10
2019-03-10T13:53:25.996Z,6.50
2019-03-10T13:55:55.796Z,11.20
2019-03-10T13:58:25.575Z,7.50
2019-03-10T14:00:55.450Z,5.93
2019-03-10T14:03:25.243Z,7.63
2019-03-10T14:05:55.002Z,3.90
2019-03-10T14:08:24.783Z,5.27
2019-03-10T14:10:54.647Z,2.43
2019-03-10T14:13:24.439Z,2.87
2019-03-10T14:15:54.218Z,3.70
2019-03-10T14:18:25.087Z,5.57
2019-03-10T14:20:54.945Z,3.03
2019-03-10T14:23:24.738Z,5.20
2019-03-10T14:25:54.503Z,3.23
2019-03-10T14:28:24.303Z,2.77
2019-03-10T14:30:54.144Z,3.37
2019-03-10T14:33:23.935Z,6.10
2019-03-10T14:35:53.723Z,2.43
2019-03-10T14:38:23.511Z,3.43
2019-03-10T14:40:53.275Z,1.80
2019-03-10T14:43:23.153Z,4.90
2019-03-10T14:45:52.923Z,4.13
2019-03-10T14:48:22.761Z,5.00
2019-03-10T14:50:52.562Z,4.50
2019-03-10T14:53:22.408Z,4.23
2019-03-10T14:55:52.208Z,4.20
2019-03-10T14:58:23.044Z,1.73
2019-03-10T15:00:52.903Z,3.27
2019-03-10T15:03:22.698Z,3.40
2019-03-10T15:05:52.463Z,2.93
2019-03-10T15:08:22.239Z,7.13
2019-03-10T15:10:52.031Z,7.57
2019-03-10T15:13:22.880Z,3.40
2019-03-10T15:15:52.685Z,3.67
2019-03-10T15:18:22.466Z,2.67
2019-03-10T15:20:52.259Z,4.63
2019-03-10T15:23:22.035Z,6.43
2019-03-10T15:25:51.909Z,6.50
2019-03-10T15:28:21.675Z,4.30
2019-03-10T15:30:51.450Z,5.50
2019-03-10T15:33:21.252Z,3.20
2019-03-10T15:35:51.064Z,2.75
2019-03-10T15:38:20.894Z,2.87
2019-03-10T15:40:50.662Z,2.50
2019-03-10T15:43:20.463Z,2.90
2019-03-10T15:45:50.818Z,3.67
2019-03-10T15:48:20.595Z,3.00
2019-03-10T15:50:50.376Z,2.97
2019-03-10T15:53:20.159Z,3.67
2019-03-10T15:55:49.951Z,3.47
2019-03-10T15:58:19.741Z,3.43
2019-03-10T16:00:50.492Z,3.57
2019-03-10T16:03:20.298Z,2.40
2019-03-10T16:05:50.067Z,5.10
2019-03-10T16:08:19.879Z,1.67
2019-03-10T16:10:49.655Z,3.37
2019-03-10T16:13:19.442Z,1.83
2019-03-10T16:15:49.320Z,4.03
2019-03-10T16:18:19.106Z,2.23
2019-03-10T16:20:48.894Z,4.10
2019-03-10T16:23:18.656Z,3.53
2019-03-10T16:25:48.461Z,1.67
2019-03-10T16:28:18.215Z,2.87
2019-03-10T16:30:47.990Z,3.73
2019-03-10T16:33:17.758Z,4.63
2019-03-10T16:35:47.532Z,1.87
2019-03-10T16:38:17.313Z,3.73
2019-03-10T16:40:47.082Z,2.40
2019-03-10T16:43:16.856Z,3.67
2019-03-10T16:45:46.645Z,3.57
2019-03-10T16:48:16.407Z,4.93
2019-03-10T16:50:46.186Z,5.07
2019-03-10T16:53:15.954Z,5.77
2019-03-10T16:55:45.744Z,3.07
2019-03-10T16:58:16.580Z,7.20
2019-03-10T17:00:46.373Z,3.67
2019-03-10T17:03:16.175Z,4.87
2019-03-10T17:05:45.953Z,3.77
2019-03-10T17:08:15.724Z,4.97
2019-03-10T17:10:45.492Z,1.80
2019-03-10T17:13:15.270Z,4.07
2019-03-10T17:15:45.108Z,1.40
2019-03-10T17:18:14.896Z,3.20
2019-03-10T17:20:44.668Z,4.53
2019-03-10T17:23:14.452Z,5.93
2019-03-10T17:25:44.215Z,4.47
2019-03-10T17:28:14.012Z,2.00
2019-03-10T17:30:43.777Z,6.13
2019-03-10T17:33:13.628Z,8.80
2019-03-10T17:35:44.374Z,4.33
2019-03-10T17:38:14.156Z,3.93
2019-03-10T17:40:43.932Z,3.92
2019-03-10T17:43:13.708Z,3.77
2019-03-10T17:45:43.495Z,2.92
2019-03-10T17:48:13.365Z,4.00
2019-03-10T17:50:43.177Z,3.83
2019-03-10T17:53:13.821Z,4.70
2019-03-10T17:55:43.625Z,3.42
2019-03-10T17:58:13.514Z,4.53
2019-03-10T18:00:43.312Z,5.22
2019-03-10T18:03:13.084Z,4.22
2019-03-10T18:05:42.872Z,5.20
2019-03-10T18:08:12.635Z,6.95
2019-03-10T18:10:42.427Z,3.70
2019-03-10T18:13:12.213Z,3.27
2019-03-10T18:15:41.998Z,5.70
2019-03-10T18:18:11.762Z,3.92
2019-03-10T18:20:41.540Z,3.83
2019-03-10T18:23:11.316Z,5.80
2019-03-10T18:25:41.105Z,6.00
2019-03-10T18:28:10.864Z,5.17
2019-03-10T18:30:40.735Z,3.40
2019-03-10T18:33:10.495Z,6.70
2019-03-10T18:35:40.273Z,4.53
2019-03-10T18:38:10.043Z,5.45
2019-03-10T18:40:39.844Z,3.40
2019-03-10T18:43:09.603Z,3.90
2019-03-10T18:45:39.386Z,3.90
2019-03-10T18:48:09.164Z,4.35
2019-03-10T18:50:38.964Z,4.37
2019-03-10T18:53:08.750Z,4.25
2019-03-10T18:55:38.527Z,4.85
2019-03-10T18:58:08.379Z,7.70
2019-03-10T19:00:38.168Z,4.58
2019-03-10T19:03:07.941Z,5.35
2019-03-10T19:05:37.743Z,6.80
2019-03-10T19:08:08.111Z,5.42
2019-03-10T19:10:37.897Z,6.67
2019-03-10T19:13:07.737Z,5.73
2019-03-10T19:15:38.243Z,4.30
2019-03-10T19:18:08.021Z,5.17
2019-03-10T19:20:38.860Z,5.47
2019-03-10T19:23:08.647Z,4.20
2019-03-10T19:25:38.443Z,4.85
2019-03-10T19:28:08.245Z,4.20
2019-03-10T19:30:38.018Z,5.47
2019-03-10T19:33:07.898Z,5.40
2019-03-10T19:35:37.670Z,7.10
2019-03-10T19:38:07.459Z,6.58
2019-03-10T19:40:37.306Z,11.40
2019-03-10T19:43:07.091Z,6.90
2019-03-10T19:45:36.863Z,5.10
2019-03-10T19:48:07.196Z,4.75
2019-03-10T19:50:36.975Z,4.80
2019-03-10T19:53:06.811Z,4.62
2019-03-10T19:55:36.670Z,4.00
2019-03-10T19:58:06.431Z,9.57
2019-03-10T20:00:36.221Z,4.37
2019-03-10T20:03:06.059Z,5.30
2019-03-10T20:05:35.839Z,5.87
2019-03-10T20:08:05.608Z,5.10
2019-03-10T20:10:36.458Z,5.27
2019-03-10T20:13:06.367Z,5.90
2019-03-10T20:15:36.151Z,6.23
2019-03-10T20:18:05.945Z,9.30
2019-03-10T20:20:35.750Z,8.67
2019-03-10T20:23:05.655Z,5.33
2019-03-10T20:25:35.499Z,5.63
2019-03-10T20:28:05.275Z,5.03
2019-03-10T20:30:35.241Z,4.30
2019-03-10T20:33:05.108Z,4.50
2019-03-10T20:35:35.259Z,4.60
2019-03-10T20:38:05.087Z,4.17
2019-03-10T20:40:34.882Z,3.70
2019-03-10T20:43:04.715Z,2.57
2019-03-10T20:45:34.520Z,3.70
2019-03-10T20:48:04.304Z,4.70
2019-03-10T20:50:34.086Z,3.90
2019-03-10T20:53:04.119Z,3.10
2019-03-10T20:55:33.930Z,3.83
2019-03-10T20:58:03.780Z,3.07
2019-03-10T21:00:34.451Z,3.77
2019-03-10T21:03:04.305Z,2.60
2019-03-10T21:05:34.074Z,3.00
2019-03-10T21:08:03.864Z,3.33
2019-03-10T21:10:33.657Z,5.00
2019-03-10T21:13:03.442Z,8.63
2019-03-10T21:15:33.214Z,7.47
2019-03-10T21:18:02.988Z,6.77
2019-03-10T21:20:32.790Z,4.97
2019-03-10T21:23:02.553Z,5.73
2019-03-10T21:25:33.093Z,4.63
2019-03-10T21:28:02.881Z,5.90
2019-03-10T21:30:33.807Z,8.13
2019-03-10T21:33:03.598Z,9.57
2019-03-10T21:35:33.756Z,7.57
2019-03-10T21:38:03.703Z,8.50
2019-03-10T21:40:36.247Z,4.47
2019-03-10T21:43:06.031Z,4.03
2019-03-10T21:45:35.885Z,5.37
2019-03-10T21:48:05.674Z,4.47
2019-03-10T21:50:35.446Z,3.20
2019-03-10T21:53:06.305Z,4.87
2019-03-10T21:55:36.072Z,4.43
2019-03-10T21:58:05.953Z,5.60
2019-03-10T22:00:35.719Z,3.70
2019-03-10T22:03:05.515Z,5.63
2019-03-10T22:05:35.286Z,4.97
2019-03-10T22:08:05.142Z,2.93
2019-03-10T22:10:34.907Z,4.90
2019-03-10T22:13:04.756Z,2.43
2019-03-10T22:15:41.621Z,6.20
2019-03-10T22:18:06.083Z,5.03
2019-03-10T22:20:35.853Z,8.70
2019-03-10T22:23:05.647Z,6.10
2019-03-10T22:25:35.487Z,7.73
2019-03-10T22:28:05.257Z,5.87
2019-03-10T22:30:35.047Z,3.30
2019-03-10T22:33:04.815Z,8.67
2019-03-10T22:35:34.611Z,9.80
2019-03-10T22:38:04.443Z,7.03
2019-03-10T22:40:34.227Z,6.63
2019-03-10T22:43:03.992Z,6.23
2019-03-10T22:45:33.769Z,8.53
2019-03-10T22:48:03.603Z,5.50
2019-03-10T22:50:33.394Z,8.13
2019-03-10T22:53:03.153Z,6.33
2019-03-10T22:55:32.954Z,9.17
2019-03-10T22:58:02.695Z,8.37
2019-03-10T23:00:37.147Z,7.17
2019-03-10T23:03:08.787Z,10.40
2019-03-10T23:05:38.571Z,5.97
2019-03-10T23:08:08.332Z,9.40
2019-03-10T23:10:38.118Z,8.83
2019-03-10T23:13:07.893Z,10.33
2019-03-10T23:15:37.682Z,11.17
2019-03-10T23:18:07.518Z,10.63
2019-03-10T23:20:37.333Z,15.03
2019-03-10T23:23:07.115Z,8.20
2019-03-10T23:25:36.916Z,8.70
2019-03-10T23:28:06.731Z,12.87
2019-03-10T23:30:36.574Z,8.33
2019-03-10T23:33:06.358Z,10.47
2019-03-10T23:35:36.147Z,19.40
2019-03-10T23:38:07.053Z,10.93
2019-03-10T23:40:36.854Z,12.53
2019-03-10T23:43:06.649Z,12.63
2019-03-10T23:45:36.436Z,12.17
2019-03-10T23:48:06.231Z,13.10
2019-03-10T23:50:35.996Z,12.30
2019-03-10T23:53:05.785Z,6.43
2019-03-10T23:55:35.546Z,15.13
2019-03-10T23:58:05.340Z,11.33
